createdAt,value
2022-12-27T00:01:56.290Z,9.06
2022-12-27T00:04:24.719Z,8.99
2022-12-27T00:06:53.092Z,8.92
2022-12-27T00:09:21.456Z,8.89
2022-12-27T00:11:53.536Z,8.84
2022-12-27T00:14:24.739Z,8.81
2022-12-27T00:16:54.511Z,8.77
2022-12-27T00:19:22.920Z,8.73
2022-12-27T00:21:51.358Z,8.70
2022-12-27T00:24:19.770Z,8.64
2022-12-27T00:26:48.024Z,8.54
2022-12-27T00:29:16.361Z,8.48
2022-12-27T00:31:44.790Z,8.42
2022-12-27T00:34:14.615Z,8.39
2022-12-27T00:36:43.043Z,8.34
2022-12-27T00:39:12.630Z,8.30
2022-12-27T00:41:41.069Z,8.27
2022-12-27T00:44:09.904Z,8.24
2022-12-27T00:46:38.287Z,8.22
2022-12-27T00:49:06.628Z,8.18
2022-12-27T00:51:36.591Z,8.14
2022-12-27T00:54:05.142Z,8.13
2022-12-27T00:56:33.510Z,8.10
2022-12-27T00:59:03.635Z,8.11
2022-12-27T01:01:34.811Z,8.12
2022-12-27T01:04:03.659Z,8.10
2022-12-27T01:06:34.290Z,8.09
2022-12-27T01:09:05.590Z,8.08
2022-12-27T01:11:34.947Z,8.08
2022-12-27T01:14:05.933Z,8.07
2022-12-27T01:16:35.110Z,8.10
2022-12-27T01:19:03.581Z,8.09
2022-12-27T01:21:31.990Z,8.04
2022-12-27T01:24:00.440Z,8.01
2022-12-27T01:26:30.160Z,8.06
2022-12-27T01:28:58.475Z,8.12
2022-12-27T01:31:29.105Z,8.16
2022-12-27T01:33:58.998Z,8.20
2022-12-27T01:36:29.100Z,8.23
2022-12-27T01:38:57.618Z,8.22
2022-12-27T01:41:45.522Z,8.14
2022-12-27T01:44:51.099Z,8.02
2022-12-27T01:47:27.676Z,7.89
2022-12-27T01:50:03.887Z,7.83
2022-12-27T01:52:36.909Z,7.75
2022-12-27T01:55:11.750Z,7.74
2022-12-27T01:57:40.579Z,7.75
2022-12-27T02:00:10.360Z,7.78
2022-12-27T02:02:41.208Z,7.75
2022-12-27T02:05:11.558Z,7.71
2022-12-27T02:07:46.918Z,7.68
2022-12-27T02:10:15.515Z,7.56
2022-12-27T02:12:43.997Z,7.42
2022-12-27T02:15:12.417Z,7.32
2022-12-27T02:17:42.498Z,7.24
2022-12-27T02:20:14.275Z,7.19
2022-12-27T02:23:42.184Z,7.12
2022-12-27T02:26:43.580Z,7.06
2022-12-27T02:29:24.037Z,7.04
2022-12-27T02:32:00.352Z,7.04
2022-12-27T02:34:33.801Z,7.05
2022-12-27T02:37:07.772Z,7.08
2022-12-27T02:39:41.103Z,7.11
2022-12-27T02:42:28.058Z,7.15
2022-12-27T02:45:14.785Z,7.19
2022-12-27T02:48:02.039Z,7.19
2022-12-27T02:51:03.491Z,7.21
2022-12-27T02:53:41.100Z,7.23
2022-12-27T02:56:41.751Z,7.24
2022-12-27T02:59:22.071Z,7.23
2022-12-27T03:02:22.034Z,7.23
2022-12-27T03:05:09.383Z,7.23
2022-12-27T03:07:42.281Z,7.22
2022-12-27T03:10:37.301Z,7.20
2022-12-27T03:13:37.968Z,7.21
2022-12-27T03:16:17.384Z,7.25
2022-12-27T03:19:02.530Z,7.33
2022-12-27T03:21:51.557Z,7.38
2022-12-27T03:24:40.759Z,7.43
2022-12-27T03:27:18.165Z,7.46
2022-12-27T03:30:07.242Z,7.51
2022-12-27T03:32:58.076Z,7.54
2022-12-27T03:35:29.980Z,7.59
2022-12-27T03:38:03.180Z,7.60
2022-12-27T03:40:39.898Z,7.59
2022-12-27T03:43:11.659Z,7.54
2022-12-27T03:46:09.682Z,7.46
2022-12-27T03:48:49.448Z,7.36
2022-12-27T03:51:21.357Z,7.29
2022-12-27T03:53:52.726Z,7.29
2022-12-27T03:56:21.773Z,7.26
2022-12-27T03:58:50.203Z,7.19
2022-12-27T04:01:18.791Z,7.08
2022-12-27T04:03:47.269Z,6.98
2022-12-27T04:06:15.659Z,6.86
2022-12-27T04:09:02.812Z,6.82
2022-12-27T04:11:48.887Z,6.77
2022-12-27T04:14:34.486Z,6.69
2022-12-27T04:17:20.373Z,6.66
2022-12-27T04:20:07.386Z,6.61
2022-12-27T04:22:53.370Z,6.54
2022-12-27T04:25:40.558Z,6.50
2022-12-27T04:28:26.390Z,6.57
2022-12-27T04:31:12.498Z,6.59
2022-12-27T04:33:58.481Z,6.52
2022-12-27T04:36:26.808Z,6.47
2022-12-27T04:38:55.150Z,6.50
2022-12-27T04:41:42.521Z,6.46
2022-12-27T04:44:27.625Z,6.40
2022-12-27T04:47:13.546Z,6.35
2022-12-27T04:49:59.489Z,6.32
2022-12-27T04:52:45.350Z,6.30
2022-12-27T04:55:19.791Z,6.34
2022-12-27T04:57:49.879Z,6.39
2022-12-27T05:00:37.236Z,6.39
2022-12-27T05:03:08.307Z,6.31
2022-12-27T05:05:38.763Z,6.24
2022-12-27T05:08:25.678Z,6.17
2022-12-27T05:11:11.853Z,6.13
2022-12-27T05:13:59.231Z,6.14
2022-12-27T05:16:28.307Z,6.25
2022-12-27T05:18:56.668Z,6.36
2022-12-27T05:21:25.480Z,6.39
2022-12-27T05:24:11.419Z,6.43
2022-12-27T05:26:40.375Z,6.49
2022-12-27T05:29:10.170Z,6.54
2022-12-27T05:31:38.586Z,6.57
2022-12-27T05:34:07.877Z,6.55
2022-12-27T05:36:39.504Z,6.59
2022-12-27T05:39:07.908Z,6.59
2022-12-27T05:41:36.403Z,6.55
2022-12-27T05:44:07.400Z,6.56
2022-12-27T05:46:37.629Z,6.61
2022-12-27T05:49:06.076Z,6.69
2022-12-27T05:51:34.391Z,6.70
2022-12-27T05:54:02.862Z,6.69
2022-12-27T05:56:31.429Z,6.67
2022-12-27T05:58:59.756Z,6.67
2022-12-27T06:01:28.201Z,6.68
2022-12-27T06:03:58.039Z,6.65
2022-12-27T06:06:26.325Z,6.62
2022-12-27T06:08:55.740Z,6.65
2022-12-27T06:11:24.050Z,6.67
2022-12-27T06:13:54.246Z,6.69
2022-12-27T06:16:23.913Z,6.66
2022-12-27T06:18:52.292Z,6.64
2022-12-27T06:21:22.931Z,6.68
2022-12-27T06:23:51.532Z,6.72
2022-12-27T06:26:21.916Z,6.79
2022-12-27T06:28:50.994Z,6.83
2022-12-27T06:31:21.160Z,6.82
2022-12-27T06:33:51.163Z,6.82
2022-12-27T06:36:23.570Z,6.84
2022-12-27T06:38:51.937Z,6.87
2022-12-27T06:41:20.529Z,6.85
2022-12-27T06:43:49.437Z,6.81
2022-12-27T06:46:19.215Z,6.84
2022-12-27T06:48:47.926Z,6.86
2022-12-27T06:51:18.812Z,6.79
2022-12-27T06:53:48.555Z,6.78
2022-12-27T06:56:18.545Z,6.79
2022-12-27T06:58:47.743Z,6.79
2022-12-27T07:01:19.317Z,6.78
2022-12-27T07:03:50.651Z,6.79
2022-12-27T07:06:19.881Z,6.77
2022-12-27T07:08:50.802Z,6.75
2022-12-27T07:11:20.395Z,6.72
2022-12-27T07:13:51.077Z,6.69
2022-12-27T07:16:22.711Z,6.69
2022-12-27T07:18:51.213Z,6.65
2022-12-27T07:21:21.504Z,6.63
2022-12-27T07:23:51.686Z,6.64
2022-12-27T07:26:22.218Z,6.64
2022-12-27T07:28:50.992Z,6.61
2022-12-27T07:31:23.038Z,6.56
2022-12-27T07:33:51.928Z,6.55
2022-12-27T07:36:22.619Z,6.57
2022-12-27T07:38:52.627Z,6.59
2022-12-27T07:41:21.256Z,6.62
2022-12-27T07:43:49.582Z,6.64
2022-12-27T07:46:19.798Z,6.70
2022-12-27T07:48:48.942Z,6.74
2022-12-27T07:51:18.565Z,6.80
2022-12-27T07:53:49.183Z,6.81
2022-12-27T07:56:25.768Z,6.83
2022-12-27T07:58:56.572Z,6.82
2022-12-27T08:01:26.909Z,6.80
2022-12-27T08:03:55.590Z,6.85
2022-12-27T08:06:29.048Z,6.85
2022-12-27T08:08:59.948Z,6.87
2022-12-27T08:11:30.230Z,6.93
2022-12-27T08:13:58.808Z,6.98
2022-12-27T08:16:27.672Z,7.03
2022-12-27T08:18:56.312Z,7.06
2022-12-27T08:21:24.851Z,7.10
2022-12-27T08:23:53.195Z,7.12
2022-12-27T08:26:21.552Z,7.10
2022-12-27T08:28:52.430Z,7.13
2022-12-27T08:31:21.050Z,7.15
2022-12-27T08:33:56.557Z,7.15
2022-12-27T08:39:15.425Z,7.10
2022-12-27T08:41:43.763Z,7.12
2022-12-27T08:44:13.861Z,7.08
2022-12-27T08:46:42.220Z,7.08
2022-12-27T08:49:10.814Z,7.05
2022-12-27T08:51:41.418Z,7.11
2022-12-27T08:54:10.284Z,7.19
2022-12-27T08:56:38.655Z,7.13
2022-12-27T08:59:07.016Z,7.12
2022-12-27T09:01:36.831Z,7.17
2022-12-27T09:04:05.433Z,7.24
2022-12-27T09:06:34.205Z,7.29
2022-12-27T09:09:05.084Z,7.26
2022-12-27T09:11:35.083Z,7.26
2022-12-27T09:14:05.392Z,7.26
2022-12-27T09:16:35.678Z,7.26
2022-12-27T09:19:05.637Z,7.26
2022-12-27T09:21:35.159Z,7.30
2022-12-27T09:24:03.776Z,7.42
2022-12-27T09:26:32.243Z,7.56
2022-12-27T09:29:01.449Z,7.61
2022-12-27T09:31:29.947Z,7.64
2022-12-27T09:33:59.367Z,7.67
2022-12-27T09:36:30.764Z,7.68
2022-12-27T09:38:59.747Z,7.74
2022-12-27T09:42:34.230Z,7.77
2022-12-27T09:44:36.604Z,7.83
2022-12-27T09:47:12.221Z,7.85
2022-12-27T09:49:43.861Z,7.91
2022-12-27T09:52:18.181Z,7.91
2022-12-27T09:54:59.410Z,7.89
2022-12-27T09:57:36.972Z,7.88
2022-12-27T10:00:08.159Z,7.87
2022-12-27T10:02:36.678Z,7.87
2022-12-27T10:05:22.591Z,7.89
2022-12-27T10:08:07.798Z,7.97
2022-12-27T10:10:44.951Z,8.02
2022-12-27T10:13:38.598Z,8.05
2022-12-27T10:16:21.403Z,8.06
2022-12-27T10:19:04.284Z,8.06
2022-12-27T10:21:38.678Z,8.07
2022-12-27T10:24:18.589Z,8.11
2022-12-27T10:26:47.097Z,8.16
2022-12-27T10:29:21.017Z,8.19
2022-12-27T10:31:49.600Z,8.20
2022-12-27T10:34:24.271Z,8.15
2022-12-27T10:36:54.272Z,8.07
2022-12-27T10:39:28.677Z,8.07
2022-12-27T10:42:05.742Z,8.06
2022-12-27T10:44:34.199Z,8.04
2022-12-27T10:47:03.113Z,8.03
2022-12-27T10:49:32.903Z,7.98
2022-12-27T10:52:11.896Z,7.99
2022-12-27T10:54:53.271Z,7.98
2022-12-27T10:57:28.261Z,8.03
2022-12-27T11:00:17.624Z,8.06
2022-12-27T11:02:53.525Z,8.06
2022-12-27T11:05:24.052Z,8.05
2022-12-27T11:07:52.883Z,8.07
2022-12-27T11:10:24.385Z,8.06
2022-12-27T11:12:58.019Z,8.03
2022-12-27T11:15:27.656Z,8.02
2022-12-27T11:17:58.609Z,8.01
2022-12-27T11:20:40.536Z,8.02
2022-12-27T11:23:14.735Z,8.08
2022-12-27T11:25:53.502Z,8.12
2022-12-27T11:28:29.148Z,8.20
2022-12-27T11:31:00.229Z,8.29
2022-12-27T11:33:37.385Z,8.37
2022-12-27T11:36:07.409Z,8.41
2022-12-27T11:38:38.778Z,8.40
2022-12-27T11:41:12.119Z,8.41
2022-12-27T11:43:48.933Z,8.42
2022-12-27T11:46:25.709Z,8.44
2022-12-27T11:48:58.518Z,8.46
2022-12-27T11:51:49.345Z,8.52
2022-12-27T11:54:29.963Z,8.52
2022-12-27T11:57:18.972Z,8.52
2022-12-27T11:59:55.606Z,8.55
2022-12-27T12:02:32.405Z,8.58
2022-12-27T12:05:27.734Z,8.62
2022-12-27T12:08:12.177Z,8.64
2022-12-27T12:10:50.529Z,8.68
2022-12-27T12:14:00.682Z,8.69
2022-12-27T12:16:56.410Z,8.72
2022-12-27T12:19:42.580Z,8.76
2022-12-27T12:22:38.651Z,8.74
2022-12-27T12:25:34.559Z,8.73
2022-12-27T12:28:56.825Z,8.70
2022-12-27T12:31:34.557Z,8.67
2022-12-27T12:34:26.385Z,8.69
2022-12-27T12:37:15.777Z,8.68
2022-12-27T12:40:08.013Z,8.71
2022-12-27T12:42:44.369Z,8.67
2022-12-27T12:45:29.308Z,8.55
2022-12-27T12:48:48.118Z,8.50
2022-12-27T12:51:32.486Z,8.55
2022-12-27T12:54:13.392Z,8.61
2022-12-27T12:57:03.091Z,8.67
2022-12-27T12:59:52.456Z,8.68
2022-12-27T13:02:38.670Z,8.65
2022-12-27T13:05:15.878Z,8.62
2022-12-27T13:07:57.135Z,8.60
2022-12-27T13:10:48.065Z,8.61
2022-12-27T13:13:23.172Z,8.55
2022-12-27T13:16:02.073Z,8.54
2022-12-27T13:18:39.883Z,8.53
2022-12-27T13:21:21.475Z,8.56
2022-12-27T13:24:04.006Z,8.58
2022-12-27T13:26:43.121Z,8.62
2022-12-27T13:29:42.589Z,8.61
2022-12-27T13:32:20.525Z,8.55
2022-12-27T13:34:58.871Z,8.61
2022-12-27T13:37:40.337Z,8.71
2022-12-27T13:40:42.334Z,8.76
2022-12-27T13:43:37.744Z,8.73
2022-12-27T13:46:21.343Z,8.62
2022-12-27T13:49:02.044Z,8.53
2022-12-27T13:51:44.441Z,8.51
2022-12-27T13:55:02.746Z,8.52
2022-12-27T13:58:24.411Z,8.53
2022-12-27T14:01:02.456Z,8.54
2022-12-27T14:03:56.419Z,8.55
2022-12-27T14:06:52.182Z,8.48
2022-12-27T14:09:54.670Z,8.42
2022-12-27T14:12:52.658Z,8.33
2022-12-27T14:15:25.036Z,8.34
2022-12-27T14:18:09.676Z,8.39
2022-12-27T14:20:53.904Z,8.43
2022-12-27T14:23:35.092Z,8.46
2022-12-27T14:26:31.751Z,8.41
2022-12-27T14:29:48.543Z,8.39
2022-12-27T14:32:59.137Z,8.33
2022-12-27T14:36:03.778Z,8.32
2022-12-27T14:39:18.965Z,8.27
2022-12-27T14:42:12.053Z,8.18
2022-12-27T14:45:21.855Z,8.05
2022-12-27T14:48:22.149Z,8.03
2022-12-27T14:54:52.120Z,8.11
2022-12-27T14:57:34.290Z,8.12
2022-12-27T15:00:13.215Z,8.14
2022-12-27T15:02:57.756Z,8.11
2022-12-27T15:05:44.528Z,8.05
2022-12-27T15:09:06.826Z,8.01
2022-12-27T15:12:06.588Z,7.95
2022-12-27T15:15:01.647Z,7.90
2022-12-27T15:17:53.009Z,7.86
2022-12-27T15:20:43.438Z,7.80
2022-12-27T15:23:22.438Z,7.72
2022-12-27T15:26:02.088Z,7.71
2022-12-27T15:28:48.407Z,7.72
2022-12-27T15:31:28.135Z,7.65
2022-12-27T15:34:14.182Z,7.55
2022-12-27T15:36:44.959Z,7.49
2022-12-27T15:39:49.833Z,7.49
2022-12-27T15:42:48.167Z,7.52
2022-12-27T15:45:33.594Z,7.48
2022-12-27T15:48:35.982Z,7.32
2022-12-27T15:51:13.729Z,7.28
2022-12-27T15:54:08.064Z,7.22
2022-12-27T15:56:58.346Z,7.15
2022-12-27T15:59:48.439Z,7.07
2022-12-27T16:02:28.926Z,6.87
2022-12-27T16:05:02.567Z,6.78
2022-12-27T16:07:48.813Z,6.70
2022-12-27T16:10:35.172Z,6.64
2022-12-27T16:13:22.264Z,6.55
2022-12-27T16:15:53.403Z,6.51
2022-12-27T16:18:50.006Z,6.50
2022-12-27T16:21:22.327Z,6.45
2022-12-27T16:23:54.656Z,6.41
2022-12-27T16:26:26.326Z,6.36
2022-12-27T16:28:58.988Z,6.32
2022-12-27T16:31:29.907Z,6.27
2022-12-27T16:34:01.270Z,6.26
2022-12-27T16:36:32.283Z,6.23
2022-12-27T16:39:21.571Z,6.21
2022-12-27T16:42:07.448Z,6.20
2022-12-27T16:44:50.961Z,6.13
2022-12-27T16:47:57.511Z,6.15
2022-12-27T16:50:55.261Z,6.18
2022-12-27T16:53:42.008Z,6.13
2022-12-27T16:56:22.810Z,6.14
2022-12-27T16:58:52.389Z,6.13
2022-12-27T17:01:52.772Z,6.01
2022-12-27T17:04:54.585Z,5.91
2022-12-27T17:07:59.876Z,5.92
2022-12-27T17:10:44.978Z,5.97
2022-12-27T17:13:18.550Z,6.04
2022-12-27T17:15:54.643Z,6.06
2022-12-27T17:18:30.416Z,6.06
2022-12-27T17:21:03.637Z,6.04
2022-12-27T17:23:39.933Z,6.00
2022-12-27T17:26:25.625Z,5.93
2022-12-27T17:29:06.815Z,5.90
2022-12-27T17:31:40.214Z,5.94
2022-12-27T17:34:17.077Z,5.96
2022-12-27T17:36:53.304Z,5.97
2022-12-27T17:39:44.038Z,5.99
2022-12-27T17:42:37.765Z,6.00
2022-12-27T17:45:19.352Z,5.95
2022-12-27T17:47:59.873Z,5.90
2022-12-27T17:50:28.883Z,5.88
2022-12-27T17:53:38.544Z,5.84
2022-12-27T17:56:35.743Z,5.81
2022-12-27T17:59:12.815Z,5.78
2022-12-27T18:01:48.394Z,5.73
2022-12-27T18:04:24.773Z,5.73
2022-12-27T18:06:57.441Z,5.73
2022-12-27T18:09:41.859Z,5.73
2022-12-27T18:12:16.106Z,5.76
2022-12-27T18:14:45.408Z,5.77
2022-12-27T18:17:28.767Z,5.76
2022-12-27T18:19:57.952Z,5.74
2022-12-27T18:22:27.878Z,5.73
2022-12-27T18:24:56.301Z,5.70
2022-12-27T18:27:26.781Z,5.67
2022-12-27T18:29:55.169Z,5.64
2022-12-27T18:32:25.721Z,5.60
2022-12-27T18:34:58.279Z,5.58
2022-12-27T18:37:28.083Z,5.57
2022-12-27T18:40:00.205Z,5.57
2022-12-27T18:42:34.357Z,5.59
2022-12-27T18:45:06.208Z,5.62
2022-12-27T18:47:41.067Z,5.67
2022-12-27T18:50:18.358Z,5.69
2022-12-27T18:52:51.261Z,5.70
2022-12-27T18:55:26.906Z,5.67
2022-12-27T18:58:06.625Z,5.63
2022-12-27T19:00:48.604Z,5.59
2022-12-27T19:03:19.254Z,5.60
2022-12-27T19:06:01.262Z,5.63
2022-12-27T19:08:34.984Z,5.61
2022-12-27T19:11:03.713Z,5.58
2022-12-27T19:13:43.020Z,5.58
2022-12-27T19:16:23.244Z,5.56
2022-12-27T19:18:54.850Z,5.53
2022-12-27T19:21:31.325Z,5.52
2022-12-27T19:24:19.270Z,5.52
2022-12-27T19:26:47.908Z,5.49
2022-12-27T19:29:19.227Z,5.46
2022-12-27T19:31:57.559Z,5.46
2022-12-27T19:34:29.229Z,5.48
2022-12-27T19:36:58.245Z,5.47
2022-12-27T19:39:29.671Z,5.49
2022-12-27T19:42:01.028Z,5.50
2022-12-27T19:44:32.754Z,5.51
2022-12-27T19:47:01.398Z,5.53
2022-12-27T19:49:45.372Z,5.55
2022-12-27T19:52:18.648Z,5.60
2022-12-27T19:54:47.682Z,5.63
2022-12-27T19:57:16.148Z,5.61
2022-12-27T19:59:45.999Z,5.58
2022-12-27T20:02:14.726Z,5.56
2022-12-27T20:04:43.251Z,5.53
2022-12-27T20:07:19.408Z,5.47
2022-12-27T20:09:47.837Z,5.40
2022-12-27T20:12:18.145Z,5.31
2022-12-27T20:14:48.217Z,5.28
2022-12-27T20:17:16.885Z,5.25
2022-12-27T20:19:45.277Z,5.24
2022-12-27T20:22:13.843Z,5.22
2022-12-27T20:24:42.412Z,5.22
2022-12-27T20:27:11.036Z,5.15
2022-12-27T20:29:39.573Z,5.12
2022-12-27T20:32:09.278Z,5.08
2022-12-27T20:34:37.693Z,5.11
2022-12-27T20:37:07.156Z,5.16
2022-12-27T20:39:35.645Z,5.15
2022-12-27T20:42:04.317Z,5.12
2022-12-27T20:44:33.213Z,5.08
2022-12-27T20:47:02.136Z,5.08
2022-12-27T20:49:32.378Z,5.11
2022-12-27T20:52:00.741Z,5.05
2022-12-27T20:54:29.363Z,4.96
2022-12-27T20:56:57.957Z,4.75
2022-12-27T20:59:26.399Z,4.72
2022-12-27T21:01:57.221Z,4.67
2022-12-27T21:04:26.829Z,4.56
2022-12-27T21:06:56.792Z,4.49
2022-12-27T21:09:25.209Z,4.45
2022-12-27T21:11:54.420Z,4.47
2022-12-27T21:14:23.178Z,4.47
2022-12-27T21:16:51.597Z,4.48
2022-12-27T21:19:20.245Z,4.44
2022-12-27T21:21:48.676Z,4.37
2022-12-27T21:24:18.562Z,4.30
2022-12-27T21:26:50.838Z,4.25
2022-12-27T21:29:23.153Z,4.18
2022-12-27T21:31:51.851Z,4.05
2022-12-27T21:34:20.640Z,3.98
2022-12-27T21:36:51.937Z,3.91
2022-12-27T21:39:22.668Z,3.83
2022-12-27T21:41:51.303Z,3.80
2022-12-27T21:44:21.209Z,3.81
2022-12-27T21:46:49.648Z,3.78
2022-12-27T21:49:18.169Z,3.81
2022-12-27T21:51:47.040Z,3.81
2022-12-27T21:54:16.306Z,3.82
2022-12-27T21:56:46.044Z,3.86
2022-12-27T21:59:14.424Z,3.86
2022-12-27T22:01:51.485Z,3.86
2022-12-27T22:04:21.963Z,3.88
2022-12-27T22:06:51.634Z,3.91
2022-12-27T22:09:20.127Z,3.99
2022-12-27T22:11:49.928Z,4.02
2022-12-27T22:14:23.298Z,3.93
2022-12-27T22:16:53.809Z,3.82
2022-12-27T22:19:22.567Z,3.78
2022-12-27T22:21:51.136Z,3.75
2022-12-27T22:24:19.841Z,3.71
2022-12-27T22:26:50.309Z,3.71
2022-12-27T22:29:18.999Z,3.71
2022-12-27T22:31:47.393Z,3.72
2022-12-27T22:34:15.832Z,3.75
2022-12-27T22:36:44.230Z,3.78
2022-12-27T22:39:12.711Z,3.78
2022-12-27T22:41:41.684Z,3.86
2022-12-27T22:44:13.461Z,3.92
2022-12-27T22:49:31.545Z,4.04
2022-12-27T22:52:00.416Z,4.09
2022-12-27T22:55:03.292Z,4.09
2022-12-27T22:57:17.171Z,4.12
2022-12-27T22:59:46.937Z,4.12
2022-12-27T23:02:15.789Z,4.14
2022-12-27T23:04:44.438Z,4.14
2022-12-27T23:07:12.902Z,4.13
2022-12-27T23:09:43.733Z,4.11
2022-12-27T23:12:12.728Z,4.12
2022-12-27T23:14:41.703Z,4.12
2022-12-27T23:17:11.439Z,4.14
2022-12-27T23:19:40.131Z,4.16
2022-12-27T23:22:08.684Z,4.14
2022-12-27T23:24:37.092Z,4.14
2022-12-27T23:27:05.545Z,4.14
2022-12-27T23:29:34.252Z,4.14
2022-12-27T23:32:02.601Z,4.12
2022-12-27T23:34:32.444Z,4.13
2022-12-27T23:37:01.362Z,4.13
2022-12-27T23:39:29.941Z,4.14
2022-12-27T23:41:58.431Z,4.14
2022-12-27T23:44:33.179Z,4.14
2022-12-27T23:47:05.273Z,4.16
2022-12-27T23:49:35.344Z,4.14
2022-12-27T23:52:03.804Z,4.13
2022-12-27T23:54:32.347Z,4.13
2022-12-27T23:57:19.802Z,4.12
2022-12-27T23:59:50.053Z,4.06
